Time;durP1;ratioP1;P1;durP2;ratioP2;P2;SDS_P1;SDS_P2;PMS_P1;PMS_P2;Temp;Humidity;BMP_temperature;BMP_pressure;BME280_temperature;BME280_humidity;BME280_pressure;Samples;Min_cycle;Max_cycle;Signal;HPM_P1;HPM_P2
2022/08/28 00:04:13;;;;;;;14.55;6.32;;;;;;;23.07;60.17;99425.12;7766761;32;39904;-72
2022/08/28 00:08:32;;;;;;;17.48;6.10;;;;;;;23.12;61.00;99466.53;7766866;32;38714;-71
2022/08/28 00:12:49;;;;;;;20.55;6.57;;;;;;;23.09;62.14;99470.03;7766943;32;37614;-70
2022/08/28 00:17:05;;;;;;;14.48;5.97;;;;;;;22.91;64.26;99482.72;7766704;32;39356;-72
2022/08/28 00:21:21;;;;;;;19.00;5.78;;;;;;;22.71;64.45;99498.53;7766529;32;39969;-71
2022/08/28 00:25:37;;;;;;;14.20;5.72;;;;;;;22.19;66.30;99489.28;7765005;32;38635;-71
2022/08/28 00:29:53;;;;;;;13.20;5.45;;;;;;;22.08;66.61;99502.91;7766513;32;38101;-71
2022/08/28 00:34:09;;;;;;;11.95;5.93;;;;;;;22.24;66.23;99494.56;7766594;32;39427;-71
2022/08/28 00:38:27;;;;;;;15.93;5.22;;;;;;;22.31;65.63;99500.34;7766294;32;39733;-70
2022/08/28 00:42:45;;;;;;;17.20;5.40;;;;;;;22.67;64.29;99477.00;7766640;32;36481;-71
2022/08/28 00:47:02;;;;;;;13.23;5.10;;;;;;;22.90;63.42;99481.09;7766383;32;38389;-70
2022/08/28 00:55:53;;;;;;;12.13;5.20;;;;;;;22.62;63.72;99471.72;7753028;32;40797;-71
2022/08/28 01:00:13;;;;;;;10.52;4.00;;;;;;;22.94;62.46;99468.91;7766298;32;37668;-70
2022/08/28 01:04:31;;;;;;;11.93;4.95;;;;;;;22.60;62.02;99473.28;7766166;32;37365;-70
2022/08/28 01:08:48;;;;;;;10.38;4.32;;;;;;;22.20;62.66;99475.06;7766138;32;39125;-70
2022/08/28 01:13:05;;;;;;;7.35;3.92;;;;;;;22.55;61.63;99476.31;7766027;32;40342;-70
2022/08/28 01:17:23;;;;;;;10.02;4.25;;;;;;;22.28;62.22;99485.22;7752127;32;37953;-71
2022/08/28 01:21:49;;;;;;;11.60;4.00;;;;;;;22.09;62.04;99497.00;7754171;32;37230;-70
2022/08/28 01:26:05;;;;;;;9.73;4.43;;;;;;;21.94;62.54;99501.34;7741945;32;40165;-70
2022/08/28 01:30:25;;;;;;;12.52;3.97;;;;;;;21.70;62.95;99505.06;7752569;32;39909;-69
2022/08/28 01:34:41;;;;;;;8.63;3.70;;;;;;;21.78;62.57;99508.03;7765849;32;37733;-70
2022/08/28 01:39:21;;;;;;;9.45;4.28;;;;;;;22.19;61.30;99511.50;7765740;32;36863;-70
2022/08/28 01:43:39;;;;;;;8.20;3.55;;;;;;;21.92;62.04;99502.84;7753232;32;40513;-69
2022/08/28 01:47:55;;;;;;;7.32;4.10;;;;;;;21.92;62.17;99520.31;7765225;32;39880;-70
2022/08/28 01:52:11;;;;;;;14.02;4.57;;;;;;;21.87;62.74;99506.72;7738553;32;37875;-70
2022/08/28 01:56:27;;;;;;;7.95;3.20;;;;;;;21.95;62.79;99499.38;7738467;32;37341;-69
2022/08/28 02:00:43;;;;;;;12.43;3.80;;;;;;;21.90;62.72;99494.06;7738523;32;39376;-70
2022/08/28 02:04:59;;;;;;;9.00;3.60;;;;;;;21.86;62.68;99487.62;7745299;32;40639;-71
2022/08/28 02:09:16;;;;;;;8.15;4.28;;;;;;;21.87;62.78;99486.47;7738464;32;37753;-70
2022/08/28 02:13:34;;;;;;;12.45;4.45;;;;;;;22.16;61.61;99481.66;7738521;32;37035;-70
2022/08/28 02:17:52;;;;;;;7.25;3.70;;;;;;;22.00;62.16;99478.88;7713953;32;39940;-70
2022/08/28 02:22:08;;;;;;;9.55;4.07;;;;;;;21.65;63.27;99469.25;7738265;32;41617;-70
2022/08/28 02:26:24;;;;;;;6.70;3.65;;;;;;;22.01;62.41;99470.22;7737975;32;38644;-70
2022/08/28 02:30:40;;;;;;;8.10;3.92;;;;;;;22.47;61.03;99456.72;7738323;32;37158;-70
2022/08/28 02:34:57;;;;;;;11.02;4.00;;;;;;;22.33;60.49;99445.25;7738253;32;39663;-70
2022/08/28 02:39:13;;;;;;;10.13;4.03;;;;;;;22.18;60.33;99438.53;7737952;32;40048;-70
2022/08/28 02:43:29;;;;;;;5.70;3.58;;;;;;;22.50;59.80;99417.09;7737948;32;37856;-70
2022/08/28 02:47:46;;;;;;;10.27;3.72;;;;;;;22.46;58.94;99394.00;7761825;32;37839;-70
2022/08/28 02:52:03;;;;;;;6.47;3.40;;;;;;;22.60;59.03;99387.97;7765032;32;39274;-71
2022/08/28 02:56:19;;;;;;;9.07;3.60;;;;;;;22.62;59.25;99379.25;7764961;32;40801;-70
2022/08/28 03:00:35;;;;;;;9.60;3.20;;;;;;;22.13;60.48;99391.59;7765003;32;38789;-70
2022/08/28 03:04:53;;;;;;;9.07;3.83;;;;;;;21.98;61.37;99423.72;7764819;32;36849;-70
2022/08/28 03:09:09;;;;;;;7.30;4.10;;;;;;;21.09;64.41;99488.59;7764774;32;39304;-69
2022/08/28 03:13:26;;;;;;;10.75;3.47;;;;;;;21.09;64.84;99494.12;7743081;32;39921;-70
2022/08/28 03:17:42;;;;;;;11.60;3.78;;;;;;;21.56;62.66;99477.72;7737527;32;38090;-71
2022/08/28 03:21:59;;;;;;;10.57;3.83;;;;;;;21.80;61.70;99428.84;7737524;32;38074;-71
2022/08/28 03:26:18;;;;;;;12.30;4.45;;;;;;;22.15;61.11;99396.78;7737524;32;39393;-71
2022/08/28 03:30:34;;;;;;;12.37;4.37;;;;;;;22.07;63.87;99424.34;7737461;32;40632;-72
2022/08/28 03:34:50;;;;;;;11.00;4.80;;;;;;;21.68;64.56;99453.84;7735978;32;38478;-71
2022/08/28 03:39:06;;;;;;;17.15;4.62;;;;;;;21.65;66.05;99430.41;7737810;32;37956;-72
2022/08/28 03:43:23;;;;;;;11.82;4.97;;;;;;;22.05;65.79;99423.91;7737124;32;39360;-71
2022/08/28 03:47:40;;;;;;;11.00;4.97;;;;;;;21.91;66.37;99424.34;7737057;32;40232;-71
2022/08/28 03:51:58;;;;;;;14.60;5.40;;;;;;;22.08;65.83;99414.87;7736898;32;39864;-71
2022/08/28 03:56:17;;;;;;;7.65;4.32;;;;;;;22.10;65.96;99415.31;7736783;32;36855;-71
2022/08/28 04:00:34;;;;;;;12.52;4.70;;;;;;;22.17;64.45;99419.44;7736757;32;39119;-71
2022/08/28 04:04:50;;;;;;;14.55;4.50;;;;;;;22.18;64.34;99418.25;7736486;32;40018;-71
2022/08/28 04:09:06;;;;;;;11.75;4.30;;;;;;;22.20;63.73;99419.53;7754987;32;37849;-71
2022/08/28 04:13:22;;;;;;;10.05;4.72;;;;;;;22.14;63.88;99423.72;7763346;32;37095;-75
2022/08/28 04:17:39;;;;;;;7.85;4.53;;;;;;;21.92;65.23;99417.66;7763248;32;40055;-75
2022/08/28 04:21:55;;;;;;;7.50;4.57;;;;;;;22.27;64.52;99425.28;7763180;32;39742;-74
2022/08/28 04:26:14;;;;;;;10.75;4.20;;;;;;;22.55;63.69;99402.12;7755929;32;37806;-73
2022/08/28 04:30:30;;;;;;;8.15;4.10;;;;;;;22.67;63.35;99398.44;7758028;32;37350;-71
2022/08/28 04:34:46;;;;;;;11.25;4.28;;;;;;;22.62;63.15;99407.03;7739448;32;39949;-70
2022/08/28 04:39:04;;;;;;;8.35;4.15;;;;;;;22.80;62.41;99402.69;7735703;32;40156;-70
2022/08/28 04:43:20;;;;;;;11.05;4.57;;;;;;;22.88;62.35;99393.31;7735828;32;37507;-70
2022/08/28 04:47:37;;;;;;;10.90;4.37;;;;;;;22.57;63.49;99404.53;7750614;32;38106;-70
2022/08/28 04:51:53;;;;;;;8.70;4.32;;;;;;;22.34;64.85;99415.53;7766515;32;39331;-71
2022/08/28 04:56:12;;;;;;;8.10;4.47;;;;;;;22.41;65.39;99430.37;7766462;32;40223;-70
2022/08/28 05:00:28;;;;;;;11.02;4.37;;;;;;;22.40;66.30;99423.19;7766355;32;38662;-71
2022/08/28 05:04:44;;;;;;;7.97;4.18;;;;;;;22.36;65.71;99416.75;7745605;32;37097;-71
2022/08/28 05:09:02;;;;;;;9.95;3.92;;;;;;;22.56;64.70;99420.41;7739308;32;39420;-70
2022/08/28 05:13:19;;;;;;;7.72;4.20;;;;;;;22.61;63.89;99436.81;7759894;32;38783;-70
2022/08/28 05:17:35;;;;;;;9.68;4.20;;;;;;;22.58;64.45;99445.06;7748789;32;38084;-70
2022/08/28 05:21:51;;;;;;;14.77;4.70;;;;;;;22.71;65.75;99440.97;7712758;32;38364;-71
2022/08/28 05:26:15;;;;;;;9.55;5.00;;;;;;;22.69;66.06;99443.31;7725078;32;40007;-70
2022/08/28 05:30:32;;;;;;;13.20;5.03;;;;;;;22.75;66.43;99433.53;7739084;32;39830;-69
2022/08/28 05:34:49;;;;;;;11.45;4.25;;;;;;;23.00;65.20;99456.31;7738842;32;38045;-70
2022/08/28 05:39:09;;;;;;;9.50;4.97;;;;;;;22.99;65.38;99453.91;7738628;32;37956;-69
2022/08/28 05:43:26;;;;;;;7.87;4.47;;;;;;;22.91;66.37;99466.84;7738918;32;39222;-70
2022/08/28 05:47:42;;;;;;;10.38;3.97;;;;;;;23.00;66.26;99458.28;7754476;32;40614;-70
2022/08/28 05:51:58;;;;;;;9.48;4.80;;;;;;;23.11;66.41;99455.78;7766043;32;38746;-70
2022/08/28 05:56:16;;;;;;;11.05;4.00;;;;;;;23.19;66.25;99444.44;7765671;32;37765;-70
2022/08/28 06:00:32;;;;;;;8.07;4.45;;;;;;;23.22;66.10;99424.25;7763523;32;38634;-74
2022/08/28 06:04:49;;;;;;;15.27;4.45;;;;;;;23.30;65.07;99402.12;7759516;32;39920;-77
2022/08/28 06:09:09;;;;;;;7.18;3.87;;;;;;;23.19;65.02;99393.59;7738411;32;37831;-76
2022/08/28 06:13:25;;;;;;;6.87;3.30;;;;;;;23.49;63.84;99357.62;7739312;32;37427;-74
2022/08/28 06:17:41;;;;;;;9.40;4.32;;;;;;;23.38;63.07;99353.84;7765523;32;39366;-73
2022/08/28 06:21:59;;;;;;;5.18;3.45;;;;;;;23.08;63.35;99379.47;7754921;32;40129;-74
2022/08/28 06:26:22;;;;;;;8.35;3.97;;;;;;;22.87;63.14;99421.50;7738285;32;38243;-74
2022/08/28 06:30:38;;;;;;;7.85;3.50;;;;;;;23.28;60.35;99410.06;7743494;32;37667;-74
2022/08/28 06:35:12;;;;;;;6.93;3.95;;;;;;;23.26;60.93;99424.31;7749057;32;39037;-73
2022/08/28 06:39:28;;;;;;;6.53;3.67;;;;;;;23.69;59.43;99427.94;7738829;32;39934;-73
2022/08/28 06:43:44;;;;;;;9.38;4.15;;;;;;;23.54;60.09;99435.22;7738067;32;38712;-74
2022/08/28 06:48:00;;;;;;;7.87;4.62;;;;;;;23.92;60.21;99444.69;7738125;32;37027;-75
2022/08/28 06:52:16;;;;;;;7.57;3.42;;;;;;;24.07;60.89;99444.94;7737977;32;40139;-76
2022/08/28 06:56:33;;;;;;;11.00;4.03;;;;;;;24.40;58.85;99440.69;7748579;32;39979;-75
2022/08/28 07:00:49;;;;;;;8.60;3.50;;;;;;;24.49;58.24;99449.59;7764770;32;38640;-75
2022/08/28 07:05:15;;;;;;;8.52;3.45;;;;;;;24.63;57.13;99463.78;7764666;32;37179;-74
2022/08/28 07:09:31;;;;;;;6.12;3.62;;;;;;;24.75;56.44;99462.78;7748825;32;39929;-75
2022/08/28 07:13:48;;;;;;;5.97;3.28;;;;;;;24.95;57.46;99455.09;7737545;32;40622;-74
2022/08/28 07:18:04;;;;;;;10.90;3.72;;;;;;;25.36;57.31;99460.03;7741482;32;37551;-73
2022/08/28 07:22:20;;;;;;;7.55;3.80;;;;;;;25.62;56.76;99459.13;7764427;32;37055;-75
2022/08/28 07:26:39;;;;;;;6.32;3.60;;;;;;;25.65;55.89;99459.16;7743332;32;39389;-74
2022/08/28 07:31:08;;;;;;;7.50;3.37;;;;;;;25.76;56.14;99464.06;7759690;32;39969;-74
2022/08/28 07:35:25;;;;;;;7.62;3.45;;;;;;;25.53;55.81;99472.59;7743828;32;38012;-74
2022/08/28 07:39:41;;;;;;;11.85;3.75;;;;;;;25.17;56.05;99469.31;7760879;32;37315;-74
2022/08/28 07:48:37;;;;;;;8.57;3.85;;;;;;;25.51;56.11;99477.72;7762889;32;40701;-75
2022/08/28 07:52:53;;;;;;;11.45;3.62;;;;;;;25.68;55.68;99477.13;7736885;32;37958;-76
2022/08/28 07:57:09;;;;;;;6.78;3.70;;;;;;;26.03;55.13;99473.16;7736789;32;37865;-75
2022/08/28 08:01:27;;;;;;;10.82;3.70;;;;;;;25.82;57.42;99474.50;7748187;32;39343;-75
2022/08/28 08:05:54;;;;;;;10.05;3.70;;;;;;;26.02;55.63;99479.91;7763416;32;39984;-75
2022/08/28 08:10:13;;;;;;;8.18;3.60;;;;;;;26.31;55.52;99471.81;7763378;32;37124;-75
2022/08/28 08:14:36;;;;;;;7.72;3.67;;;;;;;26.89;54.21;99479.47;7763376;32;37897;-75
2022/08/28 08:18:52;;;;;;;8.60;3.70;;;;;;;26.54;52.70;99472.38;7762550;32;39987;-76
2022/08/28 08:23:08;;;;;;;9.45;3.90;;;;;;;26.78;52.23;99467.37;7765244;32;39852;-70
2022/08/28 08:27:24;;;;;;;9.88;3.78;;;;;;;26.74;53.16;99460.97;7766619;32;37844;-70
2022/08/28 08:31:41;;;;;;;9.30;3.50;;;;;;;26.82;52.33;99473.00;7766694;32;36992;-72
2022/08/28 08:35:59;;;;;;;8.75;3.50;;;;;;;26.94;52.70;99475.47;7766750;32;40019;-70
2022/08/28 08:40:18;;;;;;;9.23;3.70;;;;;;;27.48;51.91;99475.78;7752578;32;40670;-70
2022/08/28 08:44:41;;;;;;;7.90;3.95;;;;;;;27.08;52.74;99480.34;7766431;32;37147;-74
2022/08/28 08:49:02;;;;;;;;;;;;;;;26.78;51.96;99493.34;7757246;32;37009;-73
2022/08/28 08:53:42;;;;;;;8.82;3.60;;;;;;;27.12;52.69;99500.75;7749562;32;39387;-74
2022/08/28 08:58:24;;;;;;;6.10;3.00;;;;;;;27.37;50.83;99497.31;7721942;32;39737;-74
2022/08/28 09:02:51;;;;;;;7.57;3.47;;;;;;;26.85;52.34;99505.78;7739198;32;37869;-76
2022/08/28 09:07:14;;;;;;;8.32;3.62;;;;;;;26.44;52.02;99501.06;7726694;32;37269;-76
2022/08/28 09:11:44;;;;;;;;;;;;;;;26.83;51.12;99508.97;7726577;32;40063;-77
2022/08/28 09:16:15;;;;;;;6.78;3.42;;;;;;;27.55;48.64;99503.78;7762078;32;39967;-76
2022/08/28 09:20:31;;;;;;;13.75;4.00;;;;;;;27.35;48.08;99508.91;7740411;32;37876;-75
2022/08/28 09:24:48;;;;;;;10.18;3.67;;;;;;;28.00;48.46;99492.34;7759813;32;37136;-75
2022/08/28 09:29:18;;;;;;;11.10;3.85;;;;;;;28.40;46.30;99485.56;7765513;32;39294;-77
2022/08/28 09:33:47;;;;;;;7.72;3.37;;;;;;;27.80;47.58;99497.47;7751140;32;39973;-71
2022/08/28 09:38:22;;;;;;;6.82;3.25;;;;;;;28.47;47.56;99491.16;7738480;32;37869;-71
2022/08/28 09:47:49;;;;;;;10.38;3.92;;;;;;;27.19;50.43;99503.59;7735182;32;38897;-71
2022/08/28 09:52:18;;;;;;;9.48;4.00;;;;;;;28.16;50.49;99497.56;7720380;32;39640;-71
2022/08/28 09:56:41;;;;;;;7.93;4.00;;;;;;;28.44;48.84;99496.78;7732380;32;38628;-71
2022/08/28 10:01:04;;;;;;;6.47;4.15;;;;;;;28.01;49.83;99507.94;7718525;32;37573;-71
2022/08/28 10:05:51;;;;;;;8.23;4.10;;;;;;;27.60;52.11;99500.63;7723593;32;40051;-72
2022/08/28 10:10:10;;;;;;;12.15;4.45;;;;;;;27.87;49.49;99500.28;7725174;32;39579;-72
2022/08/28 10:14:43;;;;;;;10.73;5.07;;;;;;;27.87;50.82;99503.09;7738523;32;38600;-72
2022/08/28 10:19:15;;;;;;;9.57;4.65;;;;;;;27.62;51.62;99503.81;7738431;32;37809;-71
2022/08/28 10:23:34;;;;;;;8.63;4.33;;;;;;;27.99;51.58;99511.13;7725991;32;39311;-72
2022/08/28 10:28:10;;;;;;;10.23;4.60;;;;;;;28.39;49.45;99489.59;7738427;32;39717;-72
2022/08/28 10:33:06;;;;;;;7.78;3.87;;;;;;;29.01;48.83;99490.31;7738186;32;38797;-71
2022/08/28 10:37:51;;;;;;;8.50;4.07;;;;;;;29.62;46.79;99478.91;7726358;32;37997;-72
2022/08/28 10:42:07;;;;;;;6.15;4.00;;;;;;;29.10;45.51;99492.75;7723580;32;39723;-72
2022/08/28 10:46:29;;;;;;;7.35;3.80;;;;;;;30.55;44.15;99485.97;7737652;32;39761;-71
2022/08/28 10:50:49;;;;;;;7.43;4.37;;;;;;;29.57;42.83;99496.97;7738314;32;37987;-72
2022/08/28 10:55:25;;;;;;;8.82;3.87;;;;;;;30.07;41.02;99490.31;7724786;32;37153;-72
2022/08/28 10:59:45;;;;;;;8.23;3.95;;;;;;;29.12;41.69;99484.72;7738122;32;39871;-71
2022/08/28 11:04:06;;;;;;;8.35;3.80;;;;;;;29.55;40.28;99490.19;7724518;32;40714;-71
2022/08/28 11:08:30;;;;;;;9.43;3.83;;;;;;;29.13;40.50;99487.12;7724725;32;38034;-71
2022/08/28 11:12:48;;;;;;;9.70;3.60;;;;;;;29.56;38.92;99491.78;7737968;32;36829;-73
2022/08/28 11:17:06;;;;;;;7.00;3.30;;;;;;;30.23;36.96;99489.78;7737649;32;38959;-72
2022/08/28 11:21:43;;;;;;;8.88;3.58;;;;;;;30.25;38.06;99495.81;7737609;32;39708;-71
2022/08/28 11:26:03;;;;;;;8.52;2.95;;;;;;;30.21;37.85;99489.41;7724719;32;38684;-72
2022/08/28 11:30:30;;;;;;;6.30;3.05;;;;;;;30.94;36.63;99486.81;7743535;32;37011;-71
2022/08/28 11:34:57;;;;;;;6.12;3.20;;;;;;;30.22;37.38;99482.59;7760896;32;40044;-71
2022/08/28 11:39:13;;;;;;;9.15;3.47;;;;;;;31.25;35.06;99484.84;7723434;32;40861;-71
2022/08/28 11:43:29;;;;;;;5.72;2.78;;;;;;;31.24;36.95;99483.28;7741146;32;37907;-70
2022/08/28 11:47:51;;;;;;;6.12;3.15;;;;;;;31.18;35.54;99484.94;7763088;32;37384;-71
2022/08/28 11:52:28;;;;;;;6.65;3.25;;;;;;;31.07;36.56;99485.84;7764108;32;39319;-71
2022/08/28 11:56:47;;;;;;;5.50;3.08;;;;;;;30.71;39.41;99476.97;7764862;32;40001;-72
2022/08/28 12:01:09;;;;;;;10.48;3.45;;;;;;;30.56;37.68;99476.28;7766829;32;38717;-71
2022/08/28 12:05:31;;;;;;;6.32;2.78;;;;;;;29.91;39.08;99476.78;7766909;32;38101;-70
2022/08/28 12:09:48;;;;;;;7.00;3.12;;;;;;;29.92;38.35;99475.53;7767069;32;40103;-71
2022/08/28 12:14:06;;;;;;;10.77;3.40;;;;;;;29.96;38.57;99475.56;7752387;32;40791;-71
2022/08/28 12:18:39;;;;;;;5.68;3.15;;;;;;;29.96;39.47;99470.72;7753243;32;37280;-71
2022/08/28 12:22:58;;;;;;;8.05;3.12;;;;;;;30.29;38.78;99465.66;7761469;32;37853;-71
2022/08/28 12:27:14;;;;;;;6.20;3.00;;;;;;;30.66;38.38;99466.16;7748869;32;39823;-71
2022/08/28 12:36:17;;;;;;;5.47;3.00;;;;;;;31.31;36.90;99457.84;7761275;32;37892;-71
2022/08/28 12:40:49;;;;;;;5.93;3.37;;;;;;;31.99;36.89;99447.66;7766837;32;37907;-71
2022/08/28 12:45:07;;;;;;;6.13;3.40;;;;;;;31.50;37.26;99447.19;7740979;32;39327;-71
2022/08/28 12:49:33;;;;;;;9.35;3.00;;;;;;;31.21;38.49;99444.69;7728845;32;39861;-71
2022/08/28 12:53:51;;;;;;;9.88;3.28;;;;;;;31.72;37.28;99442.84;7744632;32;37980;-72
2022/08/28 12:58:28;;;;;;;4.35;2.87;;;;;;;31.29;38.63;99440.56;7759681;32;36820;-72
2022/08/28 13:02:44;;;;;;;8.40;3.05;;;;;;;32.11;36.93;99438.63;7753070;32;40023;-71
2022/08/28 13:07:16;;;;;;;6.12;3.03;;;;;;;31.95;36.78;99435.66;7752905;32;40808;-72
2022/08/28 13:11:37;;;;;;;6.22;3.08;;;;;;;31.33;37.59;99435.69;7753599;32;38638;-72
2022/08/28 13:16:02;;;;;;;8.30;3.15;;;;;;;32.10;35.75;99434.22;7761482;32;37024;-72
2022/08/28 13:20:45;;;;;;;6.70;3.22;;;;;;;32.45;35.87;99423.56;7726972;32;40196;-72
2022/08/28 13:25:01;;;;;;;;;;;;;;;32.07;36.85;99420.97;7761063;32;39906;-72
2022/08/28 13:29:20;;;;;;;6.07;3.08;;;;;;;31.47;37.81;99425.44;7766107;32;38703;-72
2022/08/28 13:33:36;;;;;;;5.65;3.08;;;;;;;31.49;37.14;99414.56;7758398;32;38079;-72
2022/08/28 13:37:59;;;;;;;7.07;3.28;;;;;;;32.20;37.18;99412.69;7762776;32;39361;-72
2022/08/28 13:42:16;;;;;;;6.43;2.75;;;;;;;31.98;36.26;99412.25;7748596;32;40744;-72
2022/08/28 13:46:33;;;;;;;5.03;2.70;;;;;;;31.84;36.65;99407.63;7751324;32;38035;-73
2022/08/28 13:50:57;;;;;;;4.95;2.70;;;;;;;32.71;36.76;99407.78;7733158;32;37008;-74
2022/08/28 13:55:13;;;;;;;4.90;2.47;;;;;;;33.66;34.53;99394.09;7742598;32;39355;-74
2022/08/28 13:59:30;;;;;;;6.05;3.08;;;;;;;33.82;33.39;99393.38;7753642;32;40085;-73
2022/08/28 14:03:46;;;;;;;9.10;3.00;;;;;;;33.50;34.68;99388.44;7745874;32;37958;-74
2022/08/28 14:08:04;;;;;;;6.68;2.65;;;;;;;34.18;33.68;99386.00;7755300;32;37094;-74
2022/08/28 14:12:20;;;;;;;4.60;2.72;;;;;;;34.08;33.24;99381.44;7755335;32;39926;-75
2022/08/28 14:16:46;;;;;;;9.35;3.30;;;;;;;33.49;32.56;99381.97;7753121;32;40682;-74
2022/08/28 14:21:05;;;;;;;8.10;3.10;;;;;;;33.31;34.34;99379.56;7750442;32;37544;-74
2022/08/28 14:25:21;;;;;;;9.85;2.50;;;;;;;33.90;33.48;99370.56;7761728;32;37054;-73
2022/08/28 14:29:37;;;;;;;7.90;2.97;;;;;;;34.28;32.59;99375.69;7758836;32;39413;-74
2022/08/28 14:33:55;;;;;;;5.78;2.97;;;;;;;34.45;32.91;99382.13;7751746;32;41432;-75
2022/08/28 14:38:12;;;;;;;5.60;2.55;;;;;;;34.01;33.05;99377.56;7755605;32;38051;-75
2022/08/28 14:42:29;;;;;;;8.38;2.85;;;;;;;33.93;34.04;99381.00;7758388;32;37923;-75
2022/08/28 14:46:50;;;;;;;7.95;3.17;;;;;;;33.78;32.97;99384.16;7758391;32;39429;-75
2022/08/28 14:51:12;;;;;;;5.68;2.30;;;;;;;33.88;33.49;99382.31;7756153;32;39763;-75
2022/08/28 14:55:28;;;;;;;8.93;2.75;;;;;;;34.37;32.39;99387.16;7758419;32;38004;-74
2022/08/28 14:59:44;;;;;;;7.85;2.50;;;;;;;34.73;31.08;99386.22;7756179;32;38000;-74
2022/08/28 15:04:01;;;;;;;7.53;2.50;;;;;;;34.00;31.54;99380.81;7759787;32;39531;-75
2022/08/28 15:08:17;;;;;;;7.53;2.60;;;;;;;33.67;32.17;99387.25;7759148;32;40960;-74
2022/08/28 15:12:33;;;;;;;7.45;2.40;;;;;;;33.61;32.62;99391.78;7757980;32;38864;-74
2022/08/28 15:16:50;;;;;;;5.28;2.45;;;;;;;33.68;31.42;99383.22;7745066;32;37152;-75
2022/08/28 15:21:19;;;;;;;6.22;2.33;;;;;;;33.36;32.53;99389.56;7758209;32;38814;-75
2022/08/28 15:25:36;;;;;;;15.18;2.95;;;;;;;32.98;33.00;99386.28;7736850;32;39898;-74
2022/08/28 15:29:56;;;;;;;6.57;2.22;;;;;;;32.47;34.23;99375.19;7751425;32;37859;-75
2022/08/28 15:34:19;;;;;;;7.50;2.40;;;;;;;33.00;33.55;99384.63;7733279;32;37009;-76
2022/08/28 15:43:12;;;;;;;4.93;2.03;;;;;;;32.34;34.70;99394.72;7745862;32;40019;-75
2022/08/28 15:47:29;;;;;;;4.40;1.98;;;;;;;31.69;35.03;99398.59;7750273;32;37651;-75
2022/08/28 15:51:46;;;;;;;3.25;2.10;;;;;;;31.58;34.15;99397.94;7745771;32;37316;-75
2022/08/28 15:56:02;;;;;;;4.03;2.25;;;;;;;31.44;35.04;99402.56;7746167;32;39914;-74
2022/08/28 16:00:18;;;;;;;4.25;2.33;;;;;;;31.32;34.94;99400.31;7746969;32;39921;-76
2022/08/28 16:04:35;;;;;;;5.32;2.30;;;;;;;30.98;36.31;99392.69;7746022;32;38563;-74
2022/08/28 16:08:51;;;;;;;4.07;1.90;;;;;;;30.89;36.57;99395.16;7753488;32;37833;-74
2022/08/28 16:13:08;;;;;;;6.20;2.20;;;;;;;31.04;35.49;99391.00;7740725;32;39347;-75
2022/08/28 16:17:24;;;;;;;4.35;1.85;;;;;;;31.11;35.83;99392.13;7749394;32;40058;-74
2022/08/28 16:21:41;;;;;;;8.63;2.28;;;;;;;30.96;35.95;99391.50;7768049;32;38686;-74
2022/08/28 16:25:58;;;;;;;6.95;2.80;;;;;;;30.65;36.11;99395.03;7741677;32;38583;-75
2022/08/28 16:30:14;;;;;;;7.22;2.65;;;;;;;30.15;38.88;99389.88;7758048;32;39408;-74
2022/08/28 16:34:34;;;;;;;3.78;2.12;;;;;;;30.34;39.58;99383.69;7761569;32;40835;-74
2022/08/28 16:38:51;;;;;;;5.20;1.80;;;;;;;30.48;38.08;99391.19;7761264;32;38000;-74
2022/08/28 16:43:19;;;;;;;2.97;2.47;;;;;;;30.37;39.03;99393.31;7764511;32;37112;-77
2022/08/28 16:47:35;;;;;;;17.37;8.40;;;;;;;30.36;38.62;99394.53;7766142;32;39297;-72
2022/08/28 16:51:51;;;;;;;10.52;6.68;;;;;;;30.33;39.61;99403.78;7766326;32;39826;-75
2022/08/28 16:56:09;;;;;;;6.20;4.03;;;;;;;30.17;40.02;99407.13;7746420;32;37958;-75
2022/08/28 17:00:25;;;;;;;10.18;4.20;;;;;;;29.96;42.08;99408.91;7738435;32;37109;-75
2022/08/28 17:04:42;;;;;;;4.18;2.90;;;;;;;29.75;42.40;99409.00;7739155;32;39956;-75
2022/08/28 17:08:59;;;;;;;3.67;2.20;;;;;;;29.69;42.55;99414.28;7738836;32;39950;-75
2022/08/28 17:13:15;;;;;;;4.65;2.08;;;;;;;29.68;41.91;99428.72;7738860;32;38017;-75
2022/08/28 17:17:31;;;;;;;5.85;2.40;;;;;;;29.66;41.57;99439.56;7739359;32;37027;-75
2022/08/28 17:26:23;;;;;;;3.83;2.05;;;;;;;29.38;41.36;99458.97;7752951;32;39977;-77
2022/08/28 17:30:40;;;;;;;6.65;2.80;;;;;;;28.99;43.00;99459.91;7747063;32;38009;-75
2022/08/28 17:34:56;;;;;;;6.70;2.55;;;;;;;28.98;42.91;99468.72;7747325;32;36631;-77
2022/08/28 17:39:14;;;;;;;3.47;2.40;;;;;;;28.81;42.65;99475.97;7761895;32;39359;-77
2022/08/28 17:43:34;;;;;;;5.03;2.50;;;;;;;28.71;42.98;99471.97;7764179;32;39499;-76
2022/08/28 17:47:51;;;;;;;4.10;2.80;;;;;;;28.68;43.25;99478.38;7764746;32;38652;-76
2022/08/28 17:52:07;;;;;;;3.67;2.45;;;;;;;28.40;44.17;99474.34;7748901;32;37971;-76
2022/08/28 17:56:23;;;;;;;6.72;2.62;;;;;;;28.16;45.36;99475.94;7750620;32;39324;-76
2022/08/28 18:00:50;;;;;;;6.00;2.67;;;;;;;28.15;45.39;99479.97;7753236;32;39989;-76
2022/08/28 18:05:09;;;;;;;4.18;2.78;;;;;;;28.00;45.20;99479.12;7751400;32;37961;-76
2022/08/28 18:09:25;;;;;;;7.12;3.22;;;;;;;27.78;44.86;99494.25;7732631;32;283315;-76
2022/08/28 18:13:41;;;;;;;5.07;3.03;;;;;;;27.71;45.95;99495.84;7747842;32;40049;-76
2022/08/28 18:18:01;;;;;;;3.92;2.40;;;;;;;27.61;46.41;99504.22;7747961;32;39938;-77
2022/08/28 18:22:18;;;;;;;6.65;2.60;;;;;;;27.52;46.65;99504.56;7750398;32;38775;-77
2022/08/28 18:26:36;;;;;;;4.68;2.35;;;;;;;27.43;47.12;99501.34;7746790;32;37060;-77
2022/08/28 18:30:53;;;;;;;6.15;2.90;;;;;;;27.41;46.74;99512.13;7748186;32;37943;-77
2022/08/28 18:35:14;;;;;;;3.37;2.20;;;;;;;27.35;46.15;99508.91;7748100;32;40826;-77
2022/08/28 18:39:45;;;;;;;5.65;2.30;;;;;;;27.28;47.08;99518.06;7736204;32;38745;-77
2022/08/28 18:44:06;;;;;;;4.05;2.47;;;;;;;27.14;46.34;99523.56;7736606;32;37125;-77
2022/08/28 18:48:23;;;;;;;5.55;2.60;;;;;;;27.08;47.16;99516.72;7736451;32;40038;-76
2022/08/28 18:52:39;;;;;;;5.05;2.60;;;;;;;27.01;46.96;99527.84;7722423;32;40810;-77
2022/08/28 18:56:55;;;;;;;7.25;3.00;;;;;;;27.01;47.54;99541.84;7736455;32;39201;-78
2022/08/28 19:01:19;;;;;;;8.68;2.80;;;;;;;27.08;47.64;99531.50;7740167;32;37140;-76
2022/08/28 19:05:35;;;;;;;5.00;2.58;;;;;;;27.03;47.95;99533.84;7750097;32;37817;-76
2022/08/28 19:09:55;;;;;;;4.87;2.92;;;;;;;26.84;49.25;99532.97;7748026;32;40846;-76
2022/08/28 19:14:11;;;;;;;5.72;3.00;;;;;;;26.91;48.45;99533.00;7745198;32;37934;-75
2022/08/28 19:18:28;;;;;;;7.57;2.85;;;;;;;26.73;49.44;99532.06;7764160;32;37308;-75
2022/08/28 19:22:45;;;;;;;6.45;2.72;;;;;;;26.65;49.45;99536.81;7763838;32;38888;-76
2022/08/28 19:27:02;;;;;;;4.70;2.42;;;;;;;26.54;49.46;99547.84;7764000;32;40527;-75
2022/08/28 19:31:18;;;;;;;7.87;2.42;;;;;;;26.27;50.12;99554.78;7761175;32;37611;-76
2022/08/28 19:35:37;;;;;;;7.75;2.78;;;;;;;26.33;49.75;99548.47;7762482;32;37902;-75
2022/08/28 19:39:55;;;;;;;6.25;2.67;;;;;;;26.22;50.07;99550.34;7749921;32;40113;-75
2022/08/28 19:44:12;;;;;;;4.82;2.72;;;;;;;26.13;50.13;99556.25;7750167;32;39918;-76
2022/08/28 19:48:29;;;;;;;4.30;2.30;;;;;;;26.16;49.05;99558.25;7750541;32;36983;-76
2022/08/28 19:52:46;;;;;;;6.97;2.45;;;;;;;26.04;48.51;99552.94;7751300;32;37630;-76
2022/08/28 19:57:02;;;;;;;5.80;2.50;;;;;;;26.08;48.70;99564.97;7753215;32;39843;-75
2022/08/28 20:01:19;;;;;;;4.12;2.40;;;;;;;25.97;49.24;99575.22;7757589;32;40736;-76
2022/08/28 20:05:36;;;;;;;3.72;2.40;;;;;;;25.81;50.06;99581.00;7762885;32;37881;-77
2022/08/28 20:09:53;;;;;;;6.75;2.92;;;;;;;25.87;49.97;99593.41;7762652;32;37850;-76
2022/08/28 20:14:09;;;;;;;6.15;3.95;;;;;;;25.72;50.85;99595.25;7762824;32;40002;-76
2022/08/28 20:18:25;;;;;;;6.47;3.62;;;;;;;25.47;52.69;99595.72;7764158;32;39899;-76
2022/08/28 20:22:41;;;;;;;5.65;3.47;;;;;;;25.41;53.42;99599.22;7766033;32;37945;-77
2022/08/28 20:26:57;;;;;;;8.63;2.95;;;;;;;25.43;53.28;99597.63;7766086;32;37132;-77
2022/08/28 20:31:16;;;;;;;7.28;3.40;;;;;;;25.31;52.66;99595.06;7765964;32;40123;-76
2022/08/28 20:35:32;;;;;;;6.40;2.80;;;;;;;25.40;52.28;99598.38;7765939;32;40868;-75
2022/08/28 20:39:48;;;;;;;5.47;2.90;;;;;;;25.22;52.99;99602.88;7765553;32;37821;-75
2022/08/28 20:44:06;;;;;;;5.57;3.15;;;;;;;24.98;53.01;99598.53;7766165;32;37387;-76
2022/08/28 20:48:22;;;;;;;6.18;2.87;;;;;;;24.98;52.96;99604.91;7751834;32;39417;-76